East Orleans, Massachusetts
Current Conditions -  °F | °C
As of 9:11 AM on Wednesday 26 Nov 2014 (Local Time) from KCQX Reporting Station
Light Rain Light Rain  
Wind Chill: 42°   Ceiling: 2500
Heat Index: 46°   Visibility: 10mi
Dew Point: 39°   Wind: 7mph
Humidity: 76%   Direction: 40°NE
Pressure: 30.17"   Gusts: NA
Location:  41.78°N, 69.97°W
Report Text: KCQX 261411Z AUTO 04006KT 10SM -RA BKN025 OVC065 08/04 A3017 RMK AO2 P0000 T00780039
Loading
Personal Weather Stations






























Interactive Weather Map New forecast layout! Learn more

10-Day Weather Forecast

Advertisements
Track Severe Weather on mobile